Time;durP1;ratioP1;P1;durP2;ratioP2;P2;SDS_P1;SDS_P2;PMS_P1;PMS_P2;Temp;Humidity;BMP_temperature;BMP_pressure;BME280_temperature;BME280_humidity;BME280_pressure;Samples;Min_cycle;Max_cycle;Signal;HPM_P1;HPM_P2
2022/05/24 00:02:28;;;;;;;4.28;3.88;;;;;;;9.09;90.04;95890.41;6235309;28;19925;-65
2022/05/24 00:05:35;;;;;;;4.53;4.10;;;;;;;9.10;90.05;95871.91;6231327;28;20049;-65
2022/05/24 00:08:41;;;;;;;5.07;4.57;;;;;;;9.12;89.88;95884.94;6225071;28;20033;-65
2022/05/24 00:11:46;;;;;;;3.65;3.00;;;;;;;9.21;89.35;95900.00;6237030;28;20614;-65
2022/05/24 00:18:28;;;;;;;4.68;4.18;;;;;;;9.30;88.20;95840.72;6227798;28;20045;-66
2022/05/24 00:21:32;;;;;;;5.30;4.03;;;;;;;9.18;88.85;95842.47;6215767;28;20089;-65
2022/05/24 00:24:37;;;;;;;4.45;4.05;;;;;;;9.15;89.39;95835.66;6244301;28;20068;-65
2022/05/24 00:27:43;;;;;;;3.95;3.58;;;;;;;9.18;89.27;95879.22;6244419;28;20045;-66
2022/05/24 00:30:49;;;;;;;5.40;4.45;;;;;;;9.20;89.66;95867.66;6244493;28;20041;-65
2022/05/24 00:33:53;;;;;;;4.63;3.85;;;;;;;9.22;89.43;95851.78;6227547;28;20053;-65
2022/05/24 00:36:58;;;;;;;4.88;4.38;;;;;;;9.26;89.66;95857.66;6230894;28;20038;-65
2022/05/24 00:40:00;;;;;;;;;;;;;;;9.25;89.66;95885.66;6229438;28;20042;-64
2022/05/24 00:43:11;;;;;;;4.90;4.18;;;;;;;9.39;89.22;95861.84;6220219;28;19921;-65
2022/05/24 00:46:28;;;;;;;4.15;3.55;;;;;;;9.34;89.40;95848.25;6187200;28;20045;-65
2022/05/24 00:49:49;;;;;;;4.18;3.78;;;;;;;9.33;89.43;95880.69;6239141;28;20481;-64
2022/05/24 00:53:02;;;;;;;5.47;4.68;;;;;;;9.36;89.59;95893.56;6225980;28;20045;-66
2022/05/24 00:56:18;;;;;;;4.32;3.92;;;;;;;9.41;89.29;95875.69;6215278;28;20143;-66
2022/05/24 00:59:46;;;;;;;4.47;3.75;;;;;;;9.37;89.31;95857.66;6223442;28;20041;-65
2022/05/24 01:02:50;;;;;;;4.65;4.10;;;;;;;9.34;89.27;95857.88;6223852;28;20042;-65
2022/05/24 01:05:55;;;;;;;4.13;3.78;;;;;;;9.36;89.40;95856.00;6227055;28;20330;-66
2022/05/24 01:09:05;;;;;;;5.15;3.72;;;;;;;9.39;89.58;95855.75;6216502;28;20042;-65
2022/05/24 01:12:19;;;;;;;5.70;4.47;;;;;;;9.42;89.56;95851.09;6211016;28;20045;-65
2022/05/24 01:15:25;;;;;;;3.80;3.45;;;;;;;9.43;89.38;95865.09;6206939;28;20042;-65
2022/05/24 01:18:29;;;;;;;5.18;4.32;;;;;;;9.51;89.30;95864.47;6208217;28;20570;-66
2022/05/24 01:21:32;;;;;;;;;;;;;;;9.50;89.00;95849.69;6204706;28;20042;-65
2022/05/24 01:24:51;;;;;;;3.67;3.33;;;;;;;9.52;89.21;95845.16;6190556;28;19921;-65
2022/05/24 01:27:57;;;;;;;6.22;4.18;;;;;;;9.58;89.28;95868.31;6200106;28;20037;-65
2022/05/24 01:31:03;;;;;;;4.10;3.70;;;;;;;9.52;89.37;95879.28;6201349;28;20037;-65
2022/05/24 01:37:33;;;;;;;5.95;4.38;;;;;;;9.63;88.72;95889.81;6204042;28;20042;-65
2022/05/24 01:40:38;;;;;;;5.75;4.25;;;;;;;9.80;87.44;95901.66;6202567;28;20085;-64
2022/05/24 01:43:42;;;;;;;;;;;;;;;9.72;86.80;95904.03;6210302;28;20041;-65
2022/05/24 01:46:48;;;;;;;4.70;4.18;;;;;;;9.69;87.99;95899.84;6191742;28;19917;-65
2022/05/24 01:49:57;;;;;;;4.30;3.72;;;;;;;9.78;87.65;95904.38;6203510;28;20419;-65
2022/05/24 01:53:07;;;;;;;5.43;4.55;;;;;;;9.83;87.31;95886.47;6209597;28;20038;-66
2022/05/24 01:56:19;;;;;;;5.38;4.88;;;;;;;9.78;87.67;95899.13;6191255;28;20037;-66
2022/05/24 01:59:24;;;;;;;4.30;3.90;;;;;;;9.89;87.71;95908.81;6188576;28;20050;-64
2022/05/24 02:02:29;;;;;;;4.35;3.95;;;;;;;9.85;88.18;95928.38;6194517;28;22029;-65
2022/05/24 02:05:39;;;;;;;4.68;4.28;;;;;;;9.99;87.34;95938.69;6196801;28;20037;-65
2022/05/24 02:08:44;;;;;;;4.65;3.75;;;;;;;10.09;86.85;95920.41;6200019;28;20046;-64
2022/05/24 02:11:47;;;;;;;;;;;;;;;9.98;87.27;95920.41;6220577;28;20062;-66
2022/05/24 02:15:06;;;;;;;4.15;3.17;;;;;;;9.96;87.74;95927.56;6222276;28;20451;-64
2022/05/24 02:18:14;;;;;;;4.05;3.20;;;;;;;9.94;88.26;95924.25;6230530;28;20045;-66
2022/05/24 02:21:19;;;;;;;2.60;2.33;;;;;;;10.04;88.06;95912.88;6219025;28;20042;-65
2022/05/24 02:24:26;;;;;;;3.40;3.10;;;;;;;10.20;87.62;95923.03;6223502;28;20496;-65
2022/05/24 02:27:30;;;;;;;3.33;3.00;;;;;;;10.07;88.20;95930.19;6226139;28;20492;-65
2022/05/24 02:30:33;;;;;;;;;;;;;;;10.27;87.47;95940.00;6220695;28;20041;-65
2022/05/24 02:33:38;;;;;;;2.60;2.25;;;;;;;10.23;87.74;95930.66;6215705;28;19924;-65
2022/05/24 02:36:43;;;;;;;2.35;2.15;;;;;;;10.27;87.61;95929.50;6220389;28;20046;-65
2022/05/24 02:43:07;;;;;;;3.60;2.65;;;;;;;10.29;88.08;95964.41;6228327;28;20303;-66
2022/05/24 02:46:11;;;;;;;3.35;3.05;;;;;;;10.27;88.48;95940.00;6231418;28;20491;-65
2022/05/24 02:49:16;;;;;;;2.83;2.60;;;;;;;10.31;88.70;95938.00;6216744;28;20034;-66
2022/05/24 02:52:21;;;;;;;3.58;3.28;;;;;;;10.44;89.10;95937.84;6214365;28;20435;-65
2022/05/24 02:55:26;;;;;;;2.58;2.38;;;;;;;10.66;88.51;95942.25;6213771;28;20056;-66
2022/05/24 02:58:31;;;;;;;3.25;2.95;;;;;;;10.80;88.39;95944.59;6221112;28;20033;-66
2022/05/24 03:01:36;;;;;;;7.90;6.00;;;;;;;10.98;87.82;95960.69;6227046;28;20042;-66
2022/05/24 03:04:42;;;;;;;4.10;3.80;;;;;;;11.01;87.97;95953.41;6226112;28;20045;-67
2022/05/24 03:11:10;;;;;;;4.60;4.18;;;;;;;11.63;88.01;95954.47;6205273;28;20129;-67
2022/05/24 03:14:15;;;;;;;4.72;4.32;;;;;;;12.09;86.65;95971.69;6224950;28;20037;-67
2022/05/24 03:17:20;;;;;;;4.97;4.10;;;;;;;12.26;84.62;95966.78;6223508;28;20045;-65
2022/05/24 03:20:24;;;;;;;9.30;7.07;;;;;;;12.48;84.09;95950.75;6210363;28;20053;-66
2022/05/24 03:23:29;;;;;;;5.65;4.95;;;;;;;12.66;83.65;95939.56;6214370;28;20053;-66
2022/05/24 03:26:33;;;;;;;4.68;4.28;;;;;;;12.75;81.77;95955.41;6224331;28;20033;-66
2022/05/24 03:29:47;;;;;;;3.60;3.30;;;;;;;12.89;79.73;95948.06;6212830;28;20042;-65
2022/05/24 03:32:52;;;;;;;3.65;3.35;;;;;;;12.78;80.54;95936.66;6220218;28;20045;-66
2022/05/24 03:35:56;;;;;;;4.60;4.20;;;;;;;12.91;80.18;95954.88;6218216;28;20045;-65
2022/05/24 03:39:01;;;;;;;4.05;3.75;;;;;;;12.97;79.61;95967.53;6217896;28;20042;-66
2022/05/24 03:42:05;;;;;;;4.05;3.70;;;;;;;13.00;79.86;95955.88;6224872;28;20030;-66
2022/05/24 03:45:10;;;;;;;4.70;3.97;;;;;;;13.25;78.92;95970.38;6225131;28;20037;-65
2022/05/24 03:48:14;;;;;;;5.93;5.07;;;;;;;13.32;77.90;95945.06;6225089;28;20484;-65
2022/05/24 03:51:19;;;;;;;4.10;3.47;;;;;;;13.37;76.87;95964.00;6227464;28;20052;-67
2022/05/24 03:54:25;;;;;;;3.60;3.17;;;;;;;13.36;76.50;95967.63;6231443;28;20041;-65
2022/05/24 04:00:52;;;;;;;4.22;3.92;;;;;;;12.91;78.70;95962.81;6228267;28;20041;-66
2022/05/24 04:03:57;;;;;;;5.90;4.30;;;;;;;12.93;79.24;95955.56;6224550;28;20053;-66
2022/05/24 04:07:01;;;;;;;3.70;3.40;;;;;;;13.06;78.73;95959.78;6214669;28;20799;-65
2022/05/24 04:10:07;;;;;;;5.22;3.75;;;;;;;13.31;78.12;95954.00;6217843;28;20054;-65
2022/05/24 04:13:11;;;;;;;3.55;3.25;;;;;;;13.46;77.78;95952.59;6212843;28;20042;-66
2022/05/24 04:16:16;;;;;;;3.92;3.53;;;;;;;13.58;77.67;95957.72;6227060;28;20034;-65
2022/05/24 04:19:20;;;;;;;4.50;3.28;;;;;;;13.67;77.18;95955.09;6224425;28;20038;-66
2022/05/24 04:22:25;;;;;;;3.88;3.25;;;;;;;13.74;77.18;95963.28;6216745;28;20126;-67
2022/05/24 04:25:34;;;;;;;3.58;3.38;;;;;;;13.88;75.89;95988.44;6217623;28;20045;-66
2022/05/24 04:28:37;;;;;;;3.10;2.75;;;;;;;14.14;75.60;95994.78;6219803;28;20045;-65
2022/05/24 04:31:42;;;;;;;10.10;6.43;;;;;;;14.35;74.66;95978.72;6227318;28;20042;-66
2022/05/24 04:34:47;;;;;;;3.58;3.28;;;;;;;14.59;73.98;95980.06;6218319;28;20037;-65
2022/05/24 04:37:52;;;;;;;3.17;2.60;;;;;;;14.62;72.91;95984.22;6211214;28;20033;-65
2022/05/24 04:44:20;;;;;;;2.10;2.00;;;;;;;14.48;72.13;95965.16;6223951;28;20053;-65
2022/05/24 04:47:28;;;;;;;2.88;2.20;;;;;;;14.33;72.12;95969.28;6229325;28;20411;-65
2022/05/24 04:50:34;;;;;;;2.47;2.28;;;;;;;14.23;72.76;95971.09;6226652;28;20041;-66
2022/05/24 04:53:39;;;;;;;4.15;2.60;;;;;;;14.19;72.52;95975.03;6231321;28;20419;-65
2022/05/24 04:56:44;;;;;;;3.53;2.30;;;;;;;14.18;72.40;95968.03;6231422;28;20045;-65
2022/05/24 04:59:49;;;;;;;4.32;2.92;;;;;;;14.18;73.34;95968.88;6227282;28;20045;-65
2022/05/24 05:02:54;;;;;;;2.88;2.65;;;;;;;14.50;73.22;95951.78;6223090;28;20090;-65
2022/05/24 05:05:58;;;;;;;9.50;7.25;;;;;;;14.86;72.63;95967.78;6225279;28;20041;-66
2022/05/24 05:09:02;;;;;;;5.05;3.80;;;;;;;15.17;71.70;95965.66;6203859;28;20457;-65
2022/05/24 05:12:09;;;;;;;3.17;2.88;;;;;;;15.34;71.31;95966.63;6226583;28;20152;-66
2022/05/24 05:15:15;;;;;;;4.40;3.50;;;;;;;15.51;70.55;95963.16;6232867;28;20038;-66
2022/05/24 05:18:20;;;;;;;3.60;2.63;;;;;;;15.72;70.12;95965.53;6228600;28;20040;-65
2022/05/24 05:21:31;;;;;;;4.93;2.00;;;;;;;16.31;68.95;95977.22;6225777;28;20038;-64
2022/05/24 05:24:35;;;;;;;3.00;2.40;;;;;;;16.98;67.38;95958.78;6214324;28;20033;-66
2022/05/24 05:27:39;;;;;;;2.42;2.25;;;;;;;17.56;65.09;95983.69;6228351;28;20038;-67
2022/05/24 05:34:05;;;;;;;;;;;;;;;17.94;62.25;95998.19;6222553;28;20313;-66
2022/05/24 05:37:10;;;;;;;3.65;2.50;;;;;;;17.84;62.28;95991.38;6224144;28;19921;-65
2022/05/24 05:40:15;;;;;;;3.08;1.85;;;;;;;17.94;62.14;95974.22;6227589;28;20034;-67
2022/05/24 05:43:20;;;;;;;4.32;2.42;;;;;;;17.82;62.51;95972.91;6224055;28;20046;-66
2022/05/24 05:46:25;;;;;;;3.17;2.30;;;;;;;17.64;62.78;95986.34;6233871;28;20042;-66
2022/05/24 05:49:30;;;;;;;3.50;2.03;;;;;;;17.57;62.65;95977.34;6235506;28;20045;-66
2022/05/24 05:52:36;;;;;;;2.97;1.90;;;;;;;17.59;62.64;95943.44;6231939;28;20034;-67
2022/05/24 05:55:41;;;;;;;2.45;1.65;;;;;;;17.66;62.16;95940.94;6215824;28;20500;-66
2022/05/24 05:58:46;;;;;;;6.32;3.63;;;;;;;17.82;61.67;95945.47;6226687;28;20049;-66
2022/05/24 06:01:50;;;;;;;2.97;2.67;;;;;;;18.07;61.31;95967.59;6236022;28;20423;-66
2022/05/24 06:04:53;;;;;;;1.90;1.80;;;;;;;18.45;59.76;95967.84;6219013;28;20441;-66
2022/05/24 06:07:59;;;;;;;3.03;1.55;;;;;;;18.89;58.76;95980.72;6224832;28;20050;-66
2022/05/24 06:11:06;;;;;;;2.55;1.92;;;;;;;19.28;57.74;95989.53;6221869;28;20045;-66
2022/05/24 06:14:12;;;;;;;1.85;1.42;;;;;;;19.38;57.34;95973.28;6222572;28;20124;-66
2022/05/24 06:17:18;;;;;;;2.65;2.00;;;;;;;19.31;57.00;95979.53;6218539;28;20046;-66
2022/05/24 06:20:27;;;;;;;2.17;1.98;;;;;;;19.62;56.85;95983.00;6222274;28;20504;-66
2022/05/24 06:23:31;;;;;;;3.00;2.30;;;;;;;19.58;56.38;96007.53;6221751;28;20042;-66
2022/05/24 06:26:35;;;;;;;2.25;1.90;;;;;;;18.99;57.28;96008.00;6226890;28;20096;-66
2022/05/24 06:29:40;;;;;;;2.17;1.27;;;;;;;18.33;58.56;96021.47;6211600;28;20058;-66
2022/05/24 06:32:44;;;;;;;2.95;1.90;;;;;;;17.63;61.04;96021.09;6224491;28;20046;-66
2022/05/24 06:35:48;;;;;;;4.53;1.90;;;;;;;17.31;62.16;96022.69;6227649;28;20191;-66
2022/05/24 06:38:53;;;;;;;5.15;2.05;;;;;;;17.14;62.25;96020.97;6228906;28;20419;-65
2022/05/24 06:41:59;;;;;;;4.55;2.60;;;;;;;16.89;63.39;96034.16;6218895;28;20038;-65
2022/05/24 06:45:04;;;;;;;7.13;2.30;;;;;;;16.74;63.85;96027.75;6212671;28;20400;-66
2022/05/24 06:48:12;;;;;;;6.20;2.38;;;;;;;16.77;63.88;96030.94;6228638;28;20037;-66
2022/05/24 06:51:20;;;;;;;6.25;2.17;;;;;;;16.86;63.90;96029.16;6215510;28;20033;-65
2022/05/24 06:54:25;;;;;;;5.85;2.05;;;;;;;16.94;63.83;96031.84;6232389;28;20045;-65
2022/05/24 06:57:29;;;;;;;4.38;2.42;;;;;;;17.00;63.90;96047.16;6222321;28;20411;-65
2022/05/24 07:03:57;;;;;;;6.60;2.35;;;;;;;17.03;63.40;96052.16;6221325;28;20396;-68
2022/05/24 07:07:02;;;;;;;3.95;2.63;;;;;;;17.22;62.89;96039.63;6226223;28;20045;-66
2022/05/24 07:10:08;;;;;;;4.78;2.03;;;;;;;17.50;62.16;96049.00;6224837;28;20054;-66
2022/05/24 07:13:17;;;;;;;5.32;2.22;;;;;;;17.59;61.74;96046.38;6230820;28;20041;-66
2022/05/24 07:16:22;;;;;;;5.45;2.00;;;;;;;17.57;61.75;96037.72;6233541;28;20447;-66
2022/05/24 07:19:28;;;;;;;6.20;2.38;;;;;;;17.56;61.65;96036.88;6233330;28;20048;-66
2022/05/24 07:22:32;;;;;;;2.28;1.80;;;;;;;17.71;61.10;96023.75;6212560;28;20045;-65
2022/05/24 07:25:39;;;;;;;5.40;2.00;;;;;;;17.80;60.47;96017.47;6223466;28;20033;-66
2022/05/24 07:28:44;;;;;;;7.75;4.65;;;;;;;17.98;60.27;96004.03;6221078;28;20041;-67
2022/05/24 07:31:49;;;;;;;4.93;2.13;;;;;;;18.20;59.39;96007.81;6234895;28;20029;-65
2022/05/24 07:34:56;;;;;;;3.30;1.73;;;;;;;18.39;59.04;96010.13;6225457;28;20038;-68
2022/05/24 07:38:00;;;;;;;4.60;2.13;;;;;;;18.65;58.43;96006.41;6238536;28;20410;-66
2022/05/24 07:47:52;;;;;;;3.20;1.35;;;;;;;22.58;49.52;96037.31;6244798;28;20049;-66
2022/05/24 07:50:57;;;;;;;1.55;0.90;;;;;;;24.82;44.79;96034.78;6243241;28;20037;-66
2022/05/24 07:54:02;;;;;;;2.05;0.93;;;;;;;26.84;39.34;96025.25;6224166;28;20046;-66
2022/05/24 07:57:11;;;;;;;2.78;0.77;;;;;;;27.65;36.51;96023.31;6244429;28;20033;-65
2022/05/24 08:00:15;;;;;;;2.05;1.15;;;;;;;28.25;34.88;96018.97;6239409;28;20038;-68
2022/05/24 08:03:17;;;;;;;;;;;;;;;28.86;37.40;96007.78;6221857;28;20082;-66
2022/05/24 08:06:22;;;;;;;2.53;1.52;;;;;;;28.14;35.81;96002.50;6224393;28;19916;-64
2022/05/24 08:09:27;;;;;;;5.28;2.30;;;;;;;28.78;34.43;95999.19;6225405;28;20123;-66
2022/05/24 08:12:32;;;;;;;6.25;3.70;;;;;;;30.10;31.86;96019.31;6211950;28;20037;-66
2022/05/24 08:15:36;;;;;;;12.70;6.05;;;;;;;30.30;31.63;96003.44;6210591;28;20385;-66
2022/05/24 08:18:43;;;;;;;19.52;11.45;;;;;;;29.69;32.79;96003.09;6217342;28;20504;-63
2022/05/24 08:21:48;;;;;;;36.92;20.17;;;;;;;28.39;34.71;96012.31;6235486;28;20049;-63
2022/05/24 08:24:51;;;;;;;48.20;23.30;;;;;;;26.80;37.33;96021.34;6229647;28;20046;-65
2022/05/24 08:27:58;;;;;;;39.60;22.55;;;;;;;25.61;39.32;96019.44;6227800;28;20426;-64
2022/05/24 08:31:02;;;;;;;45.25;24.48;;;;;;;24.64;41.22;96025.47;6231578;28;20030;-64
2022/05/24 08:34:06;;;;;;;;;;;;;;;24.34;42.82;96013.47;6226912;28;20495;-67
2022/05/24 08:37:10;;;;;;;37.17;18.65;;;;;;;23.66;43.40;95990.19;6229539;28;19921;-66
2022/05/24 08:40:18;;;;;;;30.60;16.92;;;;;;;23.38;43.57;95995.69;6229998;28;20404;-63
2022/05/24 08:43:42;;;;;;;29.52;13.60;;;;;;;23.19;44.32;95999.13;6224411;28;20041;-69
2022/05/24 08:50:11;;;;;;;19.40;10.65;;;;;;;22.30;45.58;96015.84;6236647;28;20057;-67
2022/05/24 08:53:26;;;;;;;17.70;6.38;;;;;;;22.30;45.67;96019.34;6227645;28;20045;-66
2022/05/24 08:56:34;;;;;;;7.78;5.03;;;;;;;22.37;45.01;96052.41;6229512;28;20034;-68
2022/05/24 08:59:51;;;;;;;7.68;4.40;;;;;;;22.46;44.60;96057.63;6234906;28;20038;-67
2022/05/24 09:02:58;;;;;;;8.75;4.70;;;;;;;22.57;44.42;96032.97;6229862;28;20038;-68
2022/05/24 09:06:10;;;;;;;6.45;3.58;;;;;;;23.49;42.71;96015.75;6228025;28;20132;-65
2022/05/24 09:09:37;;;;;;;5.63;2.90;;;;;;;24.67;41.25;96005.41;6234734;28;20029;-64
2022/05/24 09:13:06;;;;;;;6.63;3.17;;;;;;;25.85;38.07;96026.81;6221820;28;20515;-63
2022/05/24 09:16:17;;;;;;;6.05;2.70;;;;;;;27.57;35.92;96037.16;6232217;28;20471;-65
2022/05/24 09:19:30;;;;;;;6.25;3.13;;;;;;;28.87;34.02;96043.81;6231621;28;20496;-64
2022/05/24 09:22:37;;;;;;;3.70;2.30;;;;;;;29.95;31.13;96045.09;6233661;28;20523;-64
2022/05/24 09:26:20;;;;;;;4.32;2.30;;;;;;;30.84;30.05;96047.22;6236810;28;20041;-64
2022/05/24 09:29:25;;;;;;;4.88;2.65;;;;;;;31.83;29.65;96042.06;6245707;28;20132;-67
2022/05/24 09:32:34;;;;;;;4.53;2.42;;;;;;;32.36;28.15;96032.31;6247488;28;20491;-67
2022/05/24 09:35:42;;;;;;;7.20;2.63;;;;;;;32.66;28.40;96045.41;6238734;28;20066;-67
2022/05/24 09:38:47;;;;;;;9.07;2.33;;;;;;;32.92;27.36;96048.31;6247585;28;20503;-66
2022/05/24 09:42:03;;;;;;;3.92;2.22;;;;;;;33.67;26.84;96055.38;6248465;28;20041;-66
2022/05/24 09:45:18;;;;;;;6.45;4.13;;;;;;;33.49;26.51;96040.25;6246359;28;20431;-67
2022/05/24 09:48:29;;;;;;;9.20;2.72;;;;;;;32.98;27.02;96025.47;6248424;28;20049;-67
2022/05/24 09:51:42;;;;;;;5.20;3.47;;;;;;;32.22;27.68;96018.31;6248024;28;20041;-67
2022/05/24 09:55:00;;;;;;;5.35;2.47;;;;;;;30.79;30.09;96006.41;6230464;28;20452;-67
2022/05/24 09:58:33;;;;;;;8.50;3.80;;;;;;;29.94;31.22;96016.31;6247995;28;20054;-67
2022/05/24 10:01:43;;;;;;;8.32;4.40;;;;;;;28.51;32.95;96012.38;6247863;28;20053;-67
2022/05/24 10:04:48;;;;;;;9.68;3.65;;;;;;;27.76;34.22;96000.94;6248050;28;20415;-66
2022/05/24 10:08:11;;;;;;;7.28;3.22;;;;;;;28.12;33.59;96004.63;6247863;28;20045;-69
2022/05/24 10:11:40;;;;;;;11.38;3.40;;;;;;;28.51;33.09;96013.19;6247484;28;20567;-66
2022/05/24 10:14:54;;;;;;;10.30;3.47;;;;;;;28.28;33.16;96013.97;6230197;28;20041;-68
2022/05/24 10:18:27;;;;;;;8.98;3.95;;;;;;;27.89;34.31;96020.78;6247837;28;20045;-71
2022/05/24 10:21:49;;;;;;;9.70;4.28;;;;;;;27.36;35.00;96021.41;6247737;28;20045;-69
2022/05/24 10:25:17;;;;;;;12.10;4.50;;;;;;;26.98;35.52;96025.13;6247599;28;20406;-70
2022/05/24 10:28:29;;;;;;;9.15;5.28;;;;;;;26.59;36.77;96016.38;6247709;28;20033;-66
2022/05/24 10:31:56;;;;;;;17.55;8.73;;;;;;;26.06;37.58;96020.25;6247489;28;20049;-68
2022/05/24 10:38:59;;;;;;;16.40;8.60;;;;;;;24.40;40.96;96012.63;6247191;28;20045;-67
2022/05/24 10:42:11;;;;;;;14.50;7.28;;;;;;;23.86;42.11;96027.03;6247097;28;20422;-68
2022/05/24 10:45:25;;;;;;;18.15;8.77;;;;;;;23.60;42.99;96009.81;6246305;28;20049;-67
2022/05/24 10:48:43;;;;;;;17.48;9.15;;;;;;;23.23;44.20;96001.19;6246901;28;20049;-68
2022/05/24 10:52:04;;;;;;;17.25;8.07;;;;;;;22.82;45.38;95999.31;6247158;28;20045;-68
2022/05/24 10:55:13;;;;;;;13.00;6.55;;;;;;;22.34;46.50;95996.53;6229294;28;20041;-67
2022/05/24 10:58:19;;;;;;;15.25;8.23;;;;;;;21.94;47.26;95996.16;6246276;28;20049;-69
2022/05/24 11:01:29;;;;;;;13.10;7.70;;;;;;;21.52;48.53;95994.28;6246821;28;20037;-69
2022/05/24 11:05:14;;;;;;;12.95;7.60;;;;;;;21.33;48.83;95998.34;6245656;28;20053;-68
2022/05/24 11:08:37;;;;;;;11.80;6.35;;;;;;;21.14;49.96;95998.94;6228782;28;20135;-67
2022/05/24 11:12:08;;;;;;;10.57;5.73;;;;;;;21.13;49.55;95998.09;6246429;28;20053;-67
2022/05/24 11:15:33;;;;;;;9.95;5.57;;;;;;;21.02;49.98;95996.72;6246319;28;20451;-67
2022/05/24 11:18:41;;;;;;;13.38;5.80;;;;;;;20.84;50.28;95990.94;6228554;28;20046;-67
2022/05/24 11:22:01;;;;;;;12.85;4.90;;;;;;;20.79;50.79;95990.66;6245836;28;20136;-68
2022/05/24 11:25:19;;;;;;;9.23;4.35;;;;;;;20.63;51.08;95986.31;6245914;28;20498;-68
2022/05/24 11:28:33;;;;;;;7.75;4.53;;;;;;;20.46;52.03;95969.59;6245909;28;20037;-68
2022/05/24 11:31:59;;;;;;;11.55;4.72;;;;;;;20.24;52.40;95965.16;6245846;28;20426;-71
2022/05/24 11:35:23;;;;;;;10.18;4.63;;;;;;;19.98;52.82;95966.38;6228686;28;20049;-67
2022/05/24 11:38:26;;;;;;;6.70;4.18;;;;;;;19.76;53.59;95973.41;6245843;28;20041;-68
2022/05/24 11:41:33;;;;;;;11.20;3.40;;;;;;;19.58;54.45;95976.34;6228166;28;20057;-67
2022/05/24 11:44:37;;;;;;;9.63;3.65;;;;;;;19.55;54.25;95976.69;6245694;28;20042;-69
2022/05/24 11:47:50;;;;;;;14.68;4.53;;;;;;;19.61;54.54;95970.63;6245810;28;20049;-67
2022/05/24 11:50:54;;;;;;;11.45;3.97;;;;;;;19.46;54.23;95967.09;6245565;28;20041;-68
2022/05/24 11:54:01;;;;;;;10.05;4.10;;;;;;;19.47;54.64;95969.56;6245739;28;20049;-67
2022/05/24 11:57:06;;;;;;;5.30;3.28;;;;;;;19.30;55.03;95960.00;6245226;28;20186;-68
2022/05/24 12:00:14;;;;;;;6.95;2.70;;;;;;;19.18;55.79;95964.91;6228051;28;20079;-68
2022/05/24 12:11:09;;;;;;;5.47;2.20;;;;;;;19.40;55.09;95962.47;6245522;28;20053;-72
2022/05/24 12:14:39;;;;;;;5.43;2.38;;;;;;;19.57;54.85;95960.53;6227450;28;20038;-68
2022/05/24 12:17:46;;;;;;;3.38;2.15;;;;;;;19.68;54.55;95955.63;6227675;28;20041;-67
2022/05/24 12:20:56;;;;;;;5.28;2.08;;;;;;;19.80;54.29;95968.53;6227800;28;20041;-67
2022/05/24 12:24:34;;;;;;;7.68;2.05;;;;;;;19.87;54.34;95942.78;6245316;28;20053;-68
2022/05/24 12:27:53;;;;;;;4.72;1.92;;;;;;;19.86;54.66;95943.81;6245079;28;20053;-68
2022/05/24 12:30:59;;;;;;;5.10;2.10;;;;;;;19.84;54.60;95932.47;6244903;28;20498;-67
2022/05/24 12:34:13;;;;;;;6.72;2.22;;;;;;;19.67;55.03;95937.97;6244917;28;20182;-68
2022/05/24 12:37:32;;;;;;;5.75;2.30;;;;;;;19.59;55.24;95938.00;6227598;28;20041;-68
2022/05/24 12:40:36;;;;;;;7.65;2.70;;;;;;;19.50;55.36;95936.38;6227485;28;20041;-67
2022/05/24 12:43:52;;;;;;;6.35;2.10;;;;;;;19.49;55.73;95948.06;6244693;28;20045;-67
2022/05/24 12:47:21;;;;;;;9.38;3.10;;;;;;;19.46;56.07;95956.41;6210999;28;20050;-68
2022/05/24 12:50:38;;;;;;;6.45;3.67;;;;;;;19.48;56.00;95959.75;6245057;28;20037;-68
2022/05/24 12:53:44;;;;;;;12.18;5.10;;;;;;;19.54;55.93;95956.38;6242810;28;20045;-68
2022/05/24 12:57:05;;;;;;;10.25;4.30;;;;;;;19.57;56.38;95963.19;6244798;28;20049;-67
2022/05/24 13:00:12;;;;;;;12.20;4.18;;;;;;;19.47;56.54;95958.06;6242685;28;20045;-67
2022/05/24 13:03:24;;;;;;;8.20;4.18;;;;;;;19.48;56.21;95935.72;6244269;28;20045;-68
2022/05/24 13:06:30;;;;;;;7.53;3.45;;;;;;;19.39;56.74;95928.78;6245064;28;20042;-68
2022/05/24 13:09:44;;;;;;;7.57;3.95;;;;;;;19.30;56.84;95920.00;6231232;28;20041;-67
2022/05/24 13:12:50;;;;;;;12.45;5.70;;;;;;;19.25;56.94;95912.53;6248791;28;20044;-68
2022/05/24 13:16:01;;;;;;;12.05;5.70;;;;;;;19.17;56.90;95914.44;6249110;28;20037;-68
2022/05/24 13:19:05;;;;;;;13.85;6.95;;;;;;;19.10;57.58;95903.63;6231183;28;20049;-67
2022/05/24 13:22:10;;;;;;;15.85;7.60;;;;;;;19.08;57.63;95903.00;6248319;28;20085;-67
2022/05/24 13:25:29;;;;;;;13.95;6.25;;;;;;;19.03;58.00;95900.03;6248741;28;20571;-68
2022/05/24 13:28:46;;;;;;;13.25;5.53;;;;;;;18.93;58.28;95899.41;6230784;28;20037;-68
2022/05/24 13:35:17;;;;;;;9.15;5.00;;;;;;;18.70;59.50;95908.13;6248292;28;20136;-67
2022/05/24 13:38:26;;;;;;;9.05;5.13;;;;;;;18.73;59.89;95905.13;6248299;28;20037;-68
2022/05/24 13:41:57;;;;;;;5.28;3.22;;;;;;;18.70;59.92;95901.97;6214130;28;20045;-68
2022/05/24 13:45:18;;;;;;;14.50;4.10;;;;;;;18.60;60.34;95891.56;6194726;28;20049;-69
2022/05/24 13:48:28;;;;;;;10.80;3.55;;;;;;;18.47;61.25;95891.25;6214093;28;20477;-67
2022/05/24 13:51:34;;;;;;;8.98;3.13;;;;;;;18.42;60.92;95888.28;6246755;28;20535;-68
2022/05/24 13:54:39;;;;;;;7.78;4.05;;;;;;;18.40;61.40;95891.97;6230617;28;20049;-68
2022/05/24 13:57:56;;;;;;;12.90;6.35;;;;;;;18.38;61.73;95893.94;6247971;28;20423;-68
2022/05/24 14:01:05;;;;;;;12.90;5.80;;;;;;;18.25;62.06;95898.97;6247709;28;20491;-67
2022/05/24 14:04:38;;;;;;;12.48;4.82;;;;;;;18.18;62.33;95892.69;6248213;28;20041;-68
2022/05/24 14:07:42;;;;;;;8.82;3.65;;;;;;;18.08;62.44;95882.22;6229978;28;20049;-68
2022/05/24 14:10:47;;;;;;;10.88;3.60;;;;;;;18.13;62.38;95897.69;6222067;28;20046;-68
2022/05/24 14:13:53;;;;;;;16.38;3.88;;;;;;;18.12;62.82;95896.03;6222930;28;20449;-69
2022/05/24 14:16:57;;;;;;;15.38;4.20;;;;;;;18.11;62.51;95886.38;6221694;28;20061;-67
2022/05/24 14:20:01;;;;;;;17.50;3.85;;;;;;;18.12;62.65;95901.38;6222789;28;20038;-68
2022/05/24 14:23:06;;;;;;;9.57;4.30;;;;;;;18.10;62.94;95890.03;6222682;28;20388;-66
2022/05/24 14:26:10;;;;;;;18.35;4.85;;;;;;;18.10;63.11;95879.41;6222499;28;20140;-68
2022/05/24 14:29:15;;;;;;;10.43;4.65;;;;;;;18.11;63.25;95879.22;6205659;28;20049;-67
2022/05/24 14:32:19;;;;;;;15.80;4.72;;;;;;;18.05;63.37;95877.22;6222756;28;20128;-68
2022/05/24 14:35:23;;;;;;;9.68;4.90;;;;;;;18.01;63.55;95875.09;6222712;28;20042;-67
2022/05/24 14:38:29;;;;;;;12.98;4.88;;;;;;;17.97;63.84;95884.41;6222530;28;20407;-68
2022/05/24 14:41:36;;;;;;;13.00;5.53;;;;;;;17.91;64.04;95880.59;6222138;28;20045;-68
2022/05/24 14:44:39;;;;;;;17.95;5.93;;;;;;;17.81;64.54;95875.47;6222250;28;20498;-68
2022/05/24 14:47:44;;;;;;;17.08;7.15;;;;;;;17.72;64.89;95865.81;6221130;28;20511;-68
2022/05/24 14:50:49;;;;;;;14.45;6.28;;;;;;;17.61;65.25;95863.50;6222214;28;20057;-68
2022/05/24 14:53:55;;;;;;;11.27;5.78;;;;;;;17.55;65.76;95870.31;6222335;28;20045;-68
2022/05/24 14:56:59;;;;;;;15.23;6.85;;;;;;;17.45;66.20;95859.81;6222220;28;20144;-68
2022/05/24 15:00:04;;;;;;;19.55;9.10;;;;;;;17.40;66.44;95854.19;6222034;28;20504;-68
2022/05/24 15:03:09;;;;;;;13.02;7.28;;;;;;;17.35;66.71;95851.19;6222071;28;20050;-69
2022/05/24 15:06:14;;;;;;;13.38;6.93;;;;;;;17.36;66.82;95849.38;6222388;28;20426;-67
2022/05/24 15:16:04;;;;;;;12.27;5.55;;;;;;;17.14;67.71;95850.84;6246306;28;20041;-68
2022/05/24 15:19:06;;;;;;;19.13;5.95;;;;;;;17.04;68.13;95849.19;6246298;28;20071;-68
2022/05/24 15:22:11;;;;;;;12.75;5.53;;;;;;;17.00;68.54;95855.81;6246405;28;20045;-69
2022/05/24 15:25:23;;;;;;;12.45;5.82;;;;;;;16.89;69.07;95866.75;6228694;28;20503;-68
2022/05/24 15:28:37;;;;;;;14.45;5.80;;;;;;;16.84;69.57;95877.03;6245921;28;20041;-68
2022/05/24 15:31:46;;;;;;;10.73;5.53;;;;;;;16.77;69.65;95860.94;6244011;28;20511;-68
2022/05/24 15:34:50;;;;;;;11.60;5.15;;;;;;;16.70;70.00;95859.91;6245737;28;20830;-68
2022/05/24 15:37:55;;;;;;;10.50;5.10;;;;;;;16.67;70.12;95862.03;6245450;28;20124;-67
2022/05/24 15:41:00;;;;;;;12.30;5.43;;;;;;;16.67;70.19;95856.72;6246112;28;20045;-69
2022/05/24 15:44:06;;;;;;;15.98;6.00;;;;;;;16.65;70.29;95838.31;6246084;28;20049;-68
2022/05/24 15:47:11;;;;;;;15.13;6.15;;;;;;;16.56;70.59;95824.16;6246167;28;20394;-68
2022/05/24 15:50:16;;;;;;;12.90;6.15;;;;;;;16.49;71.04;95815.19;6245530;28;20037;-67